sensor_id;sensor_type;location;lat;lon;timestamp;P1;durP1;ratioP1;P2;durP2;ratioP2
9304;SDS011;4690;52.422;13.486;2024-02-16T00:08:55;9.93;;;9.00;;
9304;SDS011;4690;52.422;13.486;2024-02-16T00:11:21;10.70;;;9.70;;
9304;SDS011;4690;52.422;13.486;2024-02-16T00:13:48;10.17;;;9.17;;
9304;SDS011;4690;52.422;13.486;2024-02-16T00:16:14;9.87;;;8.87;;
9304;SDS011;4690;52.422;13.486;2024-02-16T00:18:39;9.83;;;8.93;;
9304;SDS011;4690;52.422;13.486;2024-02-16T00:21:05;10.00;;;9.10;;
9304;SDS011;4690;52.422;13.486;2024-02-16T00:23:31;10.60;;;9.60;;
9304;SDS011;4690;52.422;13.486;2024-02-16T00:25:58;9.60;;;8.77;;
9304;SDS011;4690;52.422;13.486;2024-02-16T00:28:25;9.73;;;8.83;;
9304;SDS011;4690;52.422;13.486;2024-02-16T00:30:51;10.63;;;9.63;;
9304;SDS011;4690;52.422;13.486;2024-02-16T00:33:17;9.47;;;8.67;;
9304;SDS011;4690;52.422;13.486;2024-02-16T00:35:43;10.20;;;9.30;;
9304;SDS011;4690;52.422;13.486;2024-02-16T00:38:12;9.93;;;9.03;;
9304;SDS011;4690;52.422;13.486;2024-02-16T00:40:38;10.73;;;9.83;;
9304;SDS011;4690;52.422;13.486;2024-02-16T00:43:08;11.97;;;10.73;;
9304;SDS011;4690;52.422;13.486;2024-02-16T00:45:35;11.83;;;10.63;;
9304;SDS011;4690;52.422;13.486;2024-02-16T00:48:00;14.73;;;13.17;;
9304;SDS011;4690;52.422;13.486;2024-02-16T00:50:27;16.40;;;14.70;;
9304;SDS011;4690;52.422;13.486;2024-02-16T00:52:53;16.00;;;14.40;;
9304;SDS011;4690;52.422;13.486;2024-02-16T00:55:18;16.03;;;14.43;;
9304;SDS011;4690;52.422;13.486;2024-02-16T00:57:45;17.87;;;15.80;;
9304;SDS011;4690;52.422;13.486;2024-02-16T01:00:11;20.07;;;17.50;;
9304;SDS011;4690;52.422;13.486;2024-02-16T01:02:37;17.50;;;15.90;;
9304;SDS011;4690;52.422;13.486;2024-02-16T01:05:04;21.30;;;18.10;;
9304;SDS011;4690;52.422;13.486;2024-02-16T01:07:30;18.40;;;16.50;;
9304;SDS011;4690;52.422;13.486;2024-02-16T01:09:57;19.77;;;17.83;;
9304;SDS011;4690;52.422;13.486;2024-02-16T01:12:22;20.13;;;17.70;;
9304;SDS011;4690;52.422;13.486;2024-02-16T01:14:48;19.53;;;17.57;;
9304;SDS011;4690;52.422;13.486;2024-02-16T01:17:14;20.67;;;18.67;;
9304;SDS011;4690;52.422;13.486;2024-02-16T01:19:40;19.53;;;17.53;;
9304;SDS011;4690;52.422;13.486;2024-02-16T01:22:05;19.73;;;17.83;;
9304;SDS011;4690;52.422;13.486;2024-02-16T01:24:31;20.10;;;18.20;;
9304;SDS011;4690;52.422;13.486;2024-02-16T01:26:57;20.30;;;18.40;;
9304;SDS011;4690;52.422;13.486;2024-02-16T01:29:23;22.17;;;19.87;;
9304;SDS011;4690;52.422;13.486;2024-02-16T01:31:49;22.30;;;19.77;;
9304;SDS011;4690;52.422;13.486;2024-02-16T01:34:14;21.00;;;18.80;;
9304;SDS011;4690;52.422;13.486;2024-02-16T01:36:40;21.77;;;19.53;;
9304;SDS011;4690;52.422;13.486;2024-02-16T01:39:06;21.97;;;19.87;;
9304;SDS011;4690;52.422;13.486;2024-02-16T01:41:32;22.57;;;20.23;;
9304;SDS011;4690;52.422;13.486;2024-02-16T01:43:59;23.70;;;21.10;;
9304;SDS011;4690;52.422;13.486;2024-02-16T01:46:24;22.93;;;20.63;;
9304;SDS011;4690;52.422;13.486;2024-02-16T01:48:51;24.07;;;21.60;;
9304;SDS011;4690;52.422;13.486;2024-02-16T01:51:18;22.30;;;20.00;;
9304;SDS011;4690;52.422;13.486;2024-02-16T01:53:44;20.80;;;18.80;;
9304;SDS011;4690;52.422;13.486;2024-02-16T01:56:11;23.57;;;21.23;;
9304;SDS011;4690;52.422;13.486;2024-02-16T01:58:37;23.40;;;21.07;;
9304;SDS011;4690;52.422;13.486;2024-02-16T02:01:03;23.73;;;21.33;;
9304;SDS011;4690;52.422;13.486;2024-02-16T02:03:29;23.47;;;21.10;;
9304;SDS011;4690;52.422;13.486;2024-02-16T02:05:55;23.50;;;21.10;;
9304;SDS011;4690;52.422;13.486;2024-02-16T02:08:21;25.70;;;21.87;;
9304;SDS011;4690;52.422;13.486;2024-02-16T02:10:47;24.93;;;21.80;;
9304;SDS011;4690;52.422;13.486;2024-02-16T02:13:14;23.83;;;21.43;;
9304;SDS011;4690;52.422;13.486;2024-02-16T02:15:40;24.63;;;22.00;;
9304;SDS011;4690;52.422;13.486;2024-02-16T02:18:06;24.50;;;22.07;;
9304;SDS011;4690;52.422;13.486;2024-02-16T02:20:32;24.27;;;21.87;;
9304;SDS011;4690;52.422;13.486;2024-02-16T02:22:58;24.77;;;22.27;;
9304;SDS011;4690;52.422;13.486;2024-02-16T02:25:24;24.73;;;22.20;;
9304;SDS011;4690;52.422;13.486;2024-02-16T02:27:53;24.83;;;22.33;;
9304;SDS011;4690;52.422;13.486;2024-02-16T02:30:19;25.93;;;23.13;;
9304;SDS011;4690;52.422;13.486;2024-02-16T02:32:46;27.27;;;23.73;;
9304;SDS011;4690;52.422;13.486;2024-02-16T02:35:12;26.00;;;23.40;;
9304;SDS011;4690;52.422;13.486;2024-02-16T02:37:39;26.73;;;24.10;;
9304;SDS011;4690;52.422;13.486;2024-02-16T02:40:06;28.10;;;25.10;;
9304;SDS011;4690;52.422;13.486;2024-02-16T02:42:33;24.80;;;22.33;;
9304;SDS011;4690;52.422;13.486;2024-02-16T02:45:00;26.57;;;23.37;;
9304;SDS011;4690;52.422;13.486;2024-02-16T02:47:27;27.30;;;23.33;;
9304;SDS011;4690;52.422;13.486;2024-02-16T02:49:53;25.13;;;22.60;;
9304;SDS011;4690;52.422;13.486;2024-02-16T02:52:19;25.20;;;22.57;;
9304;SDS011;4690;52.422;13.486;2024-02-16T02:54:46;26.13;;;23.43;;
9304;SDS011;4690;52.422;13.486;2024-02-16T02:57:12;26.50;;;23.70;;
9304;SDS011;4690;52.422;13.486;2024-02-16T02:59:38;22.63;;;20.43;;
9304;SDS011;4690;52.422;13.486;2024-02-16T03:02:03;25.77;;;23.17;;
9304;SDS011;4690;52.422;13.486;2024-02-16T03:04:29;25.43;;;22.67;;
9304;SDS011;4690;52.422;13.486;2024-02-16T03:06:55;23.17;;;20.80;;
9304;SDS011;4690;52.422;13.486;2024-02-16T03:09:20;23.13;;;20.73;;
9304;SDS011;4690;52.422;13.486;2024-02-16T03:11:47;24.50;;;21.90;;
9304;SDS011;4690;52.422;13.486;2024-02-16T03:14:15;24.47;;;21.87;;
9304;SDS011;4690;52.422;13.486;2024-02-16T03:16:42;22.03;;;19.80;;
9304;SDS011;4690;52.422;13.486;2024-02-16T03:19:08;22.63;;;20.30;;
9304;SDS011;4690;52.422;13.486;2024-02-16T03:21:34;22.33;;;20.03;;
9304;SDS011;4690;52.422;13.486;2024-02-16T03:24:01;21.13;;;18.93;;
9304;SDS011;4690;52.422;13.486;2024-02-16T03:26:29;22.73;;;20.40;;
9304;SDS011;4690;52.422;13.486;2024-02-16T03:28:55;21.57;;;19.47;;
9304;SDS011;4690;52.422;13.486;2024-02-16T03:31:24;20.77;;;18.77;;
9304;SDS011;4690;52.422;13.486;2024-02-16T03:33:50;21.13;;;19.03;;
9304;SDS011;4690;52.422;13.486;2024-02-16T03:36:17;21.87;;;19.37;;
9304;SDS011;4690;52.422;13.486;2024-02-16T03:38:44;22.50;;;20.23;;
9304;SDS011;4690;52.422;13.486;2024-02-16T03:41:19;21.47;;;19.17;;
9304;SDS011;4690;52.422;13.486;2024-02-16T03:43:47;20.87;;;18.77;;
9304;SDS011;4690;52.422;13.486;2024-02-16T03:46:13;20.40;;;18.20;;
9304;SDS011;4690;52.422;13.486;2024-02-16T03:48:39;21.50;;;18.43;;
9304;SDS011;4690;52.422;13.486;2024-02-16T03:51:05;19.67;;;17.67;;
9304;SDS011;4690;52.422;13.486;2024-02-16T03:53:31;21.17;;;19.07;;
9304;SDS011;4690;52.422;13.486;2024-02-16T03:55:57;19.90;;;17.83;;
9304;SDS011;4690;52.422;13.486;2024-02-16T03:58:23;20.40;;;18.23;;
9304;SDS011;4690;52.422;13.486;2024-02-16T04:00:49;20.47;;;18.47;;
9304;SDS011;4690;52.422;13.486;2024-02-16T04:03:17;19.70;;;17.70;;
9304;SDS011;4690;52.422;13.486;2024-02-16T04:05:44;19.40;;;17.50;;
9304;SDS011;4690;52.422;13.486;2024-02-16T04:08:10;19.80;;;17.77;;
9304;SDS011;4690;52.422;13.486;2024-02-16T04:10:35;20.37;;;18.37;;
9304;SDS011;4690;52.422;13.486;2024-02-16T04:13:01;19.53;;;17.63;;
9304;SDS011;4690;52.422;13.486;2024-02-16T04:15:28;20.13;;;18.10;;
9304;SDS011;4690;52.422;13.486;2024-02-16T04:17:53;20.67;;;18.30;;
9304;SDS011;4690;52.422;13.486;2024-02-16T04:20:19;20.13;;;18.07;;
9304;SDS011;4690;52.422;13.486;2024-02-16T04:22:45;19.17;;;17.27;;
9304;SDS011;4690;52.422;13.486;2024-02-16T04:25:11;19.63;;;17.63;;
9304;SDS011;4690;52.422;13.486;2024-02-16T04:27:37;19.03;;;17.23;;
9304;SDS011;4690;52.422;13.486;2024-02-16T04:30:04;19.50;;;17.40;;
9304;SDS011;4690;52.422;13.486;2024-02-16T04:32:31;19.80;;;17.70;;
9304;SDS011;4690;52.422;13.486;2024-02-16T04:34:57;18.23;;;16.43;;
9304;SDS011;4690;52.422;13.486;2024-02-16T04:37:23;19.33;;;17.13;;
9304;SDS011;4690;52.422;13.486;2024-02-16T04:39:52;19.00;;;16.97;;
9304;SDS011;4690;52.422;13.486;2024-02-16T04:42:18;18.90;;;17.00;;
9304;SDS011;4690;52.422;13.486;2024-02-16T04:44:44;18.67;;;16.83;;
9304;SDS011;4690;52.422;13.486;2024-02-16T04:47:10;18.83;;;16.93;;
9304;SDS011;4690;52.422;13.486;2024-02-16T04:49:35;19.00;;;16.40;;
9304;SDS011;4690;52.422;13.486;2024-02-16T04:52:01;16.83;;;15.23;;
9304;SDS011;4690;52.422;13.486;2024-02-16T04:54:28;18.23;;;16.13;;
9304;SDS011;4690;52.422;13.486;2024-02-16T04:56:54;17.07;;;15.37;;
9304;SDS011;4690;52.422;13.486;2024-02-16T04:59:20;16.47;;;14.83;;
9304;SDS011;4690;52.422;13.486;2024-02-16T05:01:46;17.40;;;15.60;;
9304;SDS011;4690;52.422;13.486;2024-02-16T05:04:12;17.53;;;15.67;;
9304;SDS011;4690;52.422;13.486;2024-02-16T05:06:42;17.70;;;15.90;;
9304;SDS011;4690;52.422;13.486;2024-02-16T05:09:10;17.10;;;15.30;;
9304;SDS011;4690;52.422;13.486;2024-02-16T05:11:36;17.70;;;15.90;;
9304;SDS011;4690;52.422;13.486;2024-02-16T05:14:02;16.90;;;14.60;;
9304;SDS011;4690;52.422;13.486;2024-02-16T05:16:28;16.57;;;14.93;;
9304;SDS011;4690;52.422;13.486;2024-02-16T05:18:57;17.37;;;15.57;;
9304;SDS011;4690;52.422;13.486;2024-02-16T05:21:23;16.70;;;14.97;;
9304;SDS011;4690;52.422;13.486;2024-02-16T05:23:49;19.27;;;15.10;;
9304;SDS011;4690;52.422;13.486;2024-02-16T05:26:15;17.30;;;15.37;;
9304;SDS011;4690;52.422;13.486;2024-02-16T05:28:40;16.03;;;14.33;;
9304;SDS011;4690;52.422;13.486;2024-02-16T05:31:18;15.67;;;13.80;;
9304;SDS011;4690;52.422;13.486;2024-02-16T05:33:44;17.13;;;15.03;;
9304;SDS011;4690;52.422;13.486;2024-02-16T05:36:20;16.90;;;15.20;;
9304;SDS011;4690;52.422;13.486;2024-02-16T05:38:50;16.20;;;14.27;;
9304;SDS011;4690;52.422;13.486;2024-02-16T05:41:16;16.77;;;15.07;;
9304;SDS011;4690;52.422;13.486;2024-02-16T05:43:43;15.93;;;14.23;;
9304;SDS011;4690;52.422;13.486;2024-02-16T05:46:16;15.53;;;14.03;;
9304;SDS011;4690;52.422;13.486;2024-02-16T05:48:43;16.87;;;14.97;;
9304;SDS011;4690;52.422;13.486;2024-02-16T05:51:11;18.53;;;15.20;;
9304;SDS011;4690;52.422;13.486;2024-02-16T05:53:38;16.43;;;14.73;;
9304;SDS011;4690;52.422;13.486;2024-02-16T05:56:06;19.03;;;14.70;;
9304;SDS011;4690;52.422;13.486;2024-02-16T05:58:32;16.13;;;14.50;;
9304;SDS011;4690;52.422;13.486;2024-02-16T06:00:58;18.20;;;14.53;;
9304;SDS011;4690;52.422;13.486;2024-02-16T06:03:24;17.23;;;15.50;;
9304;SDS011;4690;52.422;13.486;2024-02-16T06:05:51;17.17;;;14.73;;
9304;SDS011;4690;52.422;13.486;2024-02-16T06:08:17;16.10;;;14.40;;
9304;SDS011;4690;52.422;13.486;2024-02-16T06:10:44;16.40;;;14.47;;
9304;SDS011;4690;52.422;13.486;2024-02-16T06:13:16;15.93;;;14.23;;
9304;SDS011;4690;52.422;13.486;2024-02-16T06:15:45;15.60;;;13.90;;
9304;SDS011;4690;52.422;13.486;2024-02-16T06:18:12;15.13;;;13.73;;
9304;SDS011;4690;52.422;13.486;2024-02-16T06:20:37;17.07;;;14.70;;
9304;SDS011;4690;52.422;13.486;2024-02-16T06:23:03;17.00;;;15.07;;
9304;SDS011;4690;52.422;13.486;2024-02-16T06:25:29;17.13;;;15.33;;
9304;SDS011;4690;52.422;13.486;2024-02-16T06:27:55;16.63;;;14.93;;
9304;SDS011;4690;52.422;13.486;2024-02-16T06:30:21;16.80;;;15.00;;
9304;SDS011;4690;52.422;13.486;2024-02-16T06:32:46;17.10;;;15.40;;
9304;SDS011;4690;52.422;13.486;2024-02-16T06:35:12;17.63;;;15.90;;
9304;SDS011;4690;52.422;13.486;2024-02-16T06:37:38;16.57;;;14.77;;
9304;SDS011;4690;52.422;13.486;2024-02-16T06:40:05;16.97;;;15.17;;
9304;SDS011;4690;52.422;13.486;2024-02-16T06:42:35;17.03;;;15.23;;
9304;SDS011;4690;52.422;13.486;2024-02-16T06:45:01;17.00;;;15.20;;
9304;SDS011;4690;52.422;13.486;2024-02-16T06:47:28;17.63;;;15.73;;
9304;SDS011;4690;52.422;13.486;2024-02-16T06:49:54;18.10;;;14.97;;
9304;SDS011;4690;52.422;13.486;2024-02-16T06:52:20;18.33;;;15.83;;
9304;SDS011;4690;52.422;13.486;2024-02-16T06:54:45;17.43;;;15.63;;
9304;SDS011;4690;52.422;13.486;2024-02-16T06:57:11;17.13;;;14.67;;
9304;SDS011;4690;52.422;13.486;2024-02-16T06:59:37;17.57;;;15.87;;
9304;SDS011;4690;52.422;13.486;2024-02-16T07:02:03;18.67;;;16.60;;
9304;SDS011;4690;52.422;13.486;2024-02-16T07:04:28;17.03;;;15.37;;
9304;SDS011;4690;52.422;13.486;2024-02-16T07:06:54;19.13;;;16.37;;
9304;SDS011;4690;52.422;13.486;2024-02-16T07:09:20;17.57;;;15.63;;
9304;SDS011;4690;52.422;13.486;2024-02-16T07:11:47;17.10;;;15.00;;
9304;SDS011;4690;52.422;13.486;2024-02-16T07:14:15;16.27;;;14.57;;
9304;SDS011;4690;52.422;13.486;2024-02-16T07:16:41;16.30;;;14.10;;
9304;SDS011;4690;52.422;13.486;2024-02-16T07:19:07;16.30;;;14.60;;
9304;SDS011;4690;52.422;13.486;2024-02-16T07:21:33;16.30;;;14.37;;
9304;SDS011;4690;52.422;13.486;2024-02-16T07:23:59;16.90;;;15.10;;
9304;SDS011;4690;52.422;13.486;2024-02-16T07:26:25;16.43;;;14.67;;
9304;SDS011;4690;52.422;13.486;2024-02-16T07:28:51;16.27;;;14.67;;
9304;SDS011;4690;52.422;13.486;2024-02-16T07:31:17;15.27;;;13.23;;
9304;SDS011;4690;52.422;13.486;2024-02-16T07:33:42;14.77;;;13.27;;
9304;SDS011;4690;52.422;13.486;2024-02-16T07:36:08;15.67;;;14.07;;
9304;SDS011;4690;52.422;13.486;2024-02-16T07:38:35;15.10;;;13.57;;
9304;SDS011;4690;52.422;13.486;2024-02-16T07:41:01;15.40;;;13.90;;
9304;SDS011;4690;52.422;13.486;2024-02-16T07:43:27;15.57;;;14.07;;
9304;SDS011;4690;52.422;13.486;2024-02-16T07:45:53;14.93;;;13.43;;
9304;SDS011;4690;52.422;13.486;2024-02-16T07:48:19;15.33;;;13.83;;
9304;SDS011;4690;52.422;13.486;2024-02-16T07:50:46;14.57;;;13.13;;
9304;SDS011;4690;52.422;13.486;2024-02-16T07:53:13;14.10;;;12.60;;
9304;SDS011;4690;52.422;13.486;2024-02-16T07:55:39;14.67;;;13.17;;
9304;SDS011;4690;52.422;13.486;2024-02-16T07:58:05;16.03;;;13.30;;
9304;SDS011;4690;52.422;13.486;2024-02-16T08:00:31;14.10;;;12.60;;
9304;SDS011;4690;52.422;13.486;2024-02-16T08:02:56;14.53;;;12.67;;
9304;SDS011;4690;52.422;13.486;2024-02-16T08:05:22;15.10;;;13.53;;
9304;SDS011;4690;52.422;13.486;2024-02-16T08:07:49;16.13;;;14.13;;
9304;SDS011;4690;52.422;13.486;2024-02-16T08:10:18;13.83;;;12.43;;
9304;SDS011;4690;52.422;13.486;2024-02-16T08:12:46;15.00;;;13.60;;
9304;SDS011;4690;52.422;13.486;2024-02-16T08:15:12;14.10;;;12.60;;
9304;SDS011;4690;52.422;13.486;2024-02-16T08:17:38;13.50;;;12.20;;
9304;SDS011;4690;52.422;13.486;2024-02-16T08:20:05;12.37;;;11.17;;
9304;SDS011;4690;52.422;13.486;2024-02-16T08:22:32;13.40;;;12.00;;
9304;SDS011;4690;52.422;13.486;2024-02-16T08:24:59;14.10;;;11.57;;
9304;SDS011;4690;52.422;13.486;2024-02-16T08:27:24;11.80;;;10.57;;
9304;SDS011;4690;52.422;13.486;2024-02-16T08:29:50;12.52;;;11.32;;
9304;SDS011;4690;52.422;13.486;2024-02-16T08:32:19;11.98;;;10.75;;
9304;SDS011;4690;52.422;13.486;2024-02-16T08:34:46;11.25;;;10.07;;
9304;SDS011;4690;52.422;13.486;2024-02-16T08:37:13;11.55;;;10.45;;
9304;SDS011;4690;52.422;13.486;2024-02-16T08:39:40;12.00;;;10.77;;
9304;SDS011;4690;52.422;13.486;2024-02-16T08:42:06;10.50;;;9.40;;
9304;SDS011;4690;52.422;13.486;2024-02-16T08:44:34;10.90;;;9.90;;
9304;SDS011;4690;52.422;13.486;2024-02-16T08:47:01;10.40;;;9.40;;
9304;SDS011;4690;52.422;13.486;2024-02-16T08:49:26;11.15;;;10.05;;
9304;SDS011;4690;52.422;13.486;2024-02-16T08:51:52;12.50;;;10.45;;
9304;SDS011;4690;52.422;13.486;2024-02-16T08:54:18;11.25;;;10.15;;
9304;SDS011;4690;52.422;13.486;2024-02-16T08:56:44;11.23;;;10.13;;
9304;SDS011;4690;52.422;13.486;2024-02-16T08:59:10;11.52;;;10.27;;
9304;SDS011;4690;52.422;13.486;2024-02-16T09:01:37;11.55;;;10.35;;
9304;SDS011;4690;52.422;13.486;2024-02-16T09:04:04;11.70;;;10.50;;
9304;SDS011;4690;52.422;13.486;2024-02-16T09:06:30;11.02;;;9.93;;
9304;SDS011;4690;52.422;13.486;2024-02-16T09:08:57;10.93;;;9.88;;
9304;SDS011;4690;52.422;13.486;2024-02-16T09:11:23;11.15;;;9.98;;
9304;SDS011;4690;52.422;13.486;2024-02-16T09:13:49;11.27;;;10.18;;
9304;SDS011;4690;52.422;13.486;2024-02-16T09:16:15;11.52;;;10.32;;
9304;SDS011;4690;52.422;13.486;2024-02-16T09:18:41;11.93;;;10.82;;
9304;SDS011;4690;52.422;13.486;2024-02-16T09:21:07;11.57;;;10.40;;
9304;SDS011;4690;52.422;13.486;2024-02-16T09:23:33;11.60;;;10.38;;
9304;SDS011;4690;52.422;13.486;2024-02-16T09:26:01;10.98;;;9.98;;
9304;SDS011;4690;52.422;13.486;2024-02-16T09:28:30;10.35;;;9.35;;
9304;SDS011;4690;52.422;13.486;2024-02-16T09:30:57;11.63;;;9.70;;
9304;SDS011;4690;52.422;13.486;2024-02-16T09:33:23;9.57;;;8.68;;
9304;SDS011;4690;52.422;13.486;2024-02-16T09:35:51;9.80;;;8.80;;
9304;SDS011;4690;52.422;13.486;2024-02-16T09:38:17;10.15;;;8.45;;
9304;SDS011;4690;52.422;13.486;2024-02-16T09:40:43;9.30;;;8.40;;
9304;SDS011;4690;52.422;13.486;2024-02-16T09:43:10;9.95;;;9.00;;
9304;SDS011;4690;52.422;13.486;2024-02-16T09:45:46;11.32;;;9.75;;
9304;SDS011;4690;52.422;13.486;2024-02-16T09:48:12;10.73;;;9.73;;
9304;SDS011;4690;52.422;13.486;2024-02-16T09:50:39;9.38;;;8.27;;
9304;SDS011;4690;52.422;13.486;2024-02-16T09:53:05;8.93;;;8.13;;
9304;SDS011;4690;52.422;13.486;2024-02-16T09:55:33;9.02;;;8.13;;
9304;SDS011;4690;52.422;13.486;2024-02-16T09:58:00;9.18;;;8.20;;
9304;SDS011;4690;52.422;13.486;2024-02-16T10:00:27;10.30;;;8.45;;
9304;SDS011;4690;52.422;13.486;2024-02-16T10:02:53;9.40;;;8.27;;
9304;SDS011;4690;52.422;13.486;2024-02-16T10:05:19;11.10;;;8.68;;
9304;SDS011;4690;52.422;13.486;2024-02-16T10:07:46;9.02;;;8.13;;
9304;SDS011;4690;52.422;13.486;2024-02-16T10:10:28;9.20;;;7.95;;
9304;SDS011;4690;52.422;13.486;2024-02-16T10:13:05;9.13;;;8.23;;
9304;SDS011;4690;52.422;13.486;2024-02-16T10:15:33;8.82;;;7.85;;
9304;SDS011;4690;52.422;13.486;2024-02-16T10:18:00;8.48;;;7.43;;
9304;SDS011;4690;52.422;13.486;2024-02-16T10:20:30;8.27;;;7.45;;
9304;SDS011;4690;52.422;13.486;2024-02-16T10:23:04;11.40;;;8.15;;
9304;SDS011;4690;52.422;13.486;2024-02-16T10:25:40;9.10;;;8.20;;
9304;SDS011;4690;52.422;13.486;2024-02-16T10:28:10;8.35;;;7.53;;
9304;SDS011;4690;52.422;13.486;2024-02-16T10:30:39;8.63;;;7.57;;
9304;SDS011;4690;52.422;13.486;2024-02-16T10:33:08;7.32;;;6.72;;
9304;SDS011;4690;52.422;13.486;2024-02-16T10:35:36;7.75;;;6.93;;
9304;SDS011;4690;52.422;13.486;2024-02-16T10:38:04;7.57;;;6.93;;
9304;SDS011;4690;52.422;13.486;2024-02-16T10:40:38;8.43;;;7.63;;
9304;SDS011;4690;52.422;13.486;2024-02-16T10:43:06;8.55;;;7.22;;
9304;SDS011;4690;52.422;13.486;2024-02-16T10:45:34;8.40;;;7.57;;
9304;SDS011;4690;52.422;13.486;2024-02-16T10:48:02;8.57;;;7.78;;
9304;SDS011;4690;52.422;13.486;2024-02-16T10:50:30;7.45;;;6.75;;
9304;SDS011;4690;52.422;13.486;2024-02-16T10:52:58;8.30;;;7.45;;
9304;SDS011;4690;52.422;13.486;2024-02-16T10:55:48;8.35;;;7.55;;
9304;SDS011;4690;52.422;13.486;2024-02-16T10:58:16;9.20;;;7.30;;
9304;SDS011;4690;52.422;13.486;2024-02-16T11:00:53;9.07;;;6.85;;
9304;SDS011;4690;52.422;13.486;2024-02-16T11:03:26;7.80;;;7.00;;
9304;SDS011;4690;52.422;13.486;2024-02-16T11:05:53;7.57;;;6.68;;
9304;SDS011;4690;52.422;13.486;2024-02-16T11:08:20;9.55;;;7.32;;
9304;SDS011;4690;52.422;13.486;2024-02-16T11:10:55;10.07;;;7.15;;
9304;SDS011;4690;52.422;13.486;2024-02-16T11:13:26;7.75;;;7.05;;
9304;SDS011;4690;52.422;13.486;2024-02-16T11:15:59;7.97;;;7.28;;
9304;SDS011;4690;52.422;13.486;2024-02-16T11:18:28;7.47;;;6.70;;
9304;SDS011;4690;52.422;13.486;2024-02-16T11:20:56;8.52;;;6.43;;
9304;SDS011;4690;52.422;13.486;2024-02-16T11:23:27;9.45;;;6.18;;
9304;SDS011;4690;52.422;13.486;2024-02-16T11:26:06;6.82;;;5.97;;
9304;SDS011;4690;52.422;13.486;2024-02-16T11:28:40;6.38;;;5.78;;
9304;SDS011;4690;52.422;13.486;2024-02-16T11:31:07;6.45;;;5.75;;
9304;SDS011;4690;52.422;13.486;2024-02-16T11:33:34;7.40;;;5.15;;
9304;SDS011;4690;52.422;13.486;2024-02-16T11:36:04;8.82;;;5.10;;
9304;SDS011;4690;52.422;13.486;2024-02-16T11:38:33;4.72;;;4.32;;
9304;SDS011;4690;52.422;13.486;2024-02-16T11:41:00;5.35;;;4.85;;
9304;SDS011;4690;52.422;13.486;2024-02-16T11:43:32;6.22;;;4.57;;
9304;SDS011;4690;52.422;13.486;2024-02-16T11:45:59;7.13;;;4.22;;
9304;SDS011;4690;52.422;13.486;2024-02-16T11:48:36;5.05;;;4.55;;
9304;SDS011;4690;52.422;13.486;2024-02-16T11:51:03;5.15;;;4.00;;
9304;SDS011;4690;52.422;13.486;2024-02-16T11:53:30;4.50;;;4.10;;
9304;SDS011;4690;52.422;13.486;2024-02-16T11:55:57;4.95;;;4.45;;
9304;SDS011;4690;52.422;13.486;2024-02-16T11:58:23;5.70;;;4.10;;
9304;SDS011;4690;52.422;13.486;2024-02-16T12:00:50;5.60;;;4.20;;
9304;SDS011;4690;52.422;13.486;2024-02-16T12:05:53;5.05;;;4.50;;
9304;SDS011;4690;52.422;13.486;2024-02-16T12:08:21;4.45;;;4.00;;
9304;SDS011;4690;52.422;13.486;2024-02-16T12:10:48;4.22;;;3.83;;
9304;SDS011;4690;52.422;13.486;2024-02-16T12:13:16;4.32;;;3.92;;
9304;SDS011;4690;52.422;13.486;2024-02-16T12:15:48;4.85;;;4.40;;
9304;SDS011;4690;52.422;13.486;2024-02-16T12:18:25;6.07;;;4.20;;
9304;SDS011;4690;52.422;13.486;2024-02-16T12:23:27;6.35;;;4.28;;
9304;SDS011;4690;52.422;13.486;2024-02-16T12:25:55;4.45;;;4.05;;
9304;SDS011;4690;52.422;13.486;2024-02-16T12:28:23;6.07;;;3.88;;
9304;SDS011;4690;52.422;13.486;2024-02-16T12:30:53;4.22;;;3.83;;
9304;SDS011;4690;52.422;13.486;2024-02-16T12:33:22;6.28;;;4.97;;
9304;SDS011;4690;52.422;13.486;2024-02-16T12:35:47;4.35;;;3.60;;
9304;SDS011;4690;52.422;13.486;2024-02-16T12:38:13;4.93;;;4.40;;
9304;SDS011;4690;52.422;13.486;2024-02-16T12:40:42;6.75;;;4.20;;
9304;SDS011;4690;52.422;13.486;2024-02-16T12:43:08;4.90;;;4.15;;
9304;SDS011;4690;52.422;13.486;2024-02-16T12:45:36;4.40;;;3.85;;
9304;SDS011;4690;52.422;13.486;2024-02-16T12:48:02;5.00;;;4.50;;
9304;SDS011;4690;52.422;13.486;2024-02-16T12:50:29;4.85;;;4.22;;
9304;SDS011;4690;52.422;13.486;2024-02-16T12:52:56;5.45;;;4.20;;
9304;SDS011;4690;52.422;13.486;2024-02-16T12:55:22;5.07;;;4.47;;
9304;SDS011;4690;52.422;13.486;2024-02-16T12:57:49;4.72;;;4.32;;
9304;SDS011;4690;52.422;13.486;2024-02-16T13:00:16;4.22;;;3.83;;
9304;SDS011;4690;52.422;13.486;2024-02-16T13:02:42;4.43;;;4.03;;
9304;SDS011;4690;52.422;13.486;2024-02-16T13:05:09;4.30;;;3.90;;
9304;SDS011;4690;52.422;13.486;2024-02-16T13:07:35;5.65;;;3.75;;
9304;SDS011;4690;52.422;13.486;2024-02-16T13:10:05;5.35;;;3.80;;
9304;SDS011;4690;52.422;13.486;2024-02-16T13:12:32;4.88;;;4.13;;
9304;SDS011;4690;52.422;13.486;2024-02-16T13:14:58;4.28;;;3.83;;
9304;SDS011;4690;52.422;13.486;2024-02-16T13:17:23;4.63;;;4.22;;
9304;SDS011;4690;52.422;13.486;2024-02-16T13:19:51;5.10;;;4.13;;
9304;SDS011;4690;52.422;13.486;2024-02-16T13:22:17;5.20;;;4.28;;
9304;SDS011;4690;52.422;13.486;2024-02-16T13:24:43;4.63;;;4.18;;
9304;SDS011;4690;52.422;13.486;2024-02-16T13:27:09;5.80;;;4.40;;
9304;SDS011;4690;52.422;13.486;2024-02-16T13:29:35;5.07;;;4.10;;
9304;SDS011;4690;52.422;13.486;2024-02-16T13:32:01;4.32;;;3.92;;
9304;SDS011;4690;52.422;13.486;2024-02-16T13:34:28;4.47;;;3.75;;
9304;SDS011;4690;52.422;13.486;2024-02-16T13:36:55;4.20;;;3.80;;
9304;SDS011;4690;52.422;13.486;2024-02-16T13:39:21;8.45;;;4.28;;
9304;SDS011;4690;52.422;13.486;2024-02-16T13:41:47;4.63;;;4.07;;
9304;SDS011;4690;52.422;13.486;2024-02-16T13:44:16;5.20;;;4.20;;
9304;SDS011;4690;52.422;13.486;2024-02-16T13:46:44;7.68;;;4.05;;
9304;SDS011;4690;52.422;13.486;2024-02-16T13:49:14;5.38;;;4.10;;
9304;SDS011;4690;52.422;13.486;2024-02-16T13:51:41;4.47;;;4.00;;
9304;SDS011;4690;52.422;13.486;2024-02-16T13:54:07;4.90;;;4.40;;
9304;SDS011;4690;52.422;13.486;2024-02-16T13:56:33;6.13;;;4.78;;
9304;SDS011;4690;52.422;13.486;2024-02-16T13:59:01;5.05;;;4.55;;
9304;SDS011;4690;52.422;13.486;2024-02-16T14:01:28;8.45;;;6.60;;
9304;SDS011;4690;52.422;13.486;2024-02-16T14:03:54;7.97;;;7.18;;
9304;SDS011;4690;52.422;13.486;2024-02-16T14:06:20;7.85;;;7.03;;
9304;SDS011;4690;52.422;13.486;2024-02-16T14:08:46;8.00;;;6.70;;
9304;SDS011;4690;52.422;13.486;2024-02-16T14:11:17;6.32;;;5.00;;
9304;SDS011;4690;52.422;13.486;2024-02-16T14:13:44;5.00;;;4.00;;
9304;SDS011;4690;52.422;13.486;2024-02-16T14:16:10;4.65;;;4.05;;
9304;SDS011;4690;52.422;13.486;2024-02-16T14:18:36;4.97;;;4.22;;
9304;SDS011;4690;52.422;13.486;2024-02-16T14:21:02;5.65;;;4.40;;
9304;SDS011;4690;52.422;13.486;2024-02-16T14:23:29;5.82;;;4.18;;
9304;SDS011;4690;52.422;13.486;2024-02-16T14:25:55;4.90;;;4.10;;
9304;SDS011;4690;52.422;13.486;2024-02-16T14:28:21;5.28;;;4.47;;
9304;SDS011;4690;52.422;13.486;2024-02-16T14:30:47;5.43;;;4.28;;
9304;SDS011;4690;52.422;13.486;2024-02-16T14:33:13;5.00;;;4.05;;
9304;SDS011;4690;52.422;13.486;2024-02-16T14:35:41;5.15;;;4.20;;
9304;SDS011;4690;52.422;13.486;2024-02-16T14:38:08;5.03;;;4.20;;
9304;SDS011;4690;52.422;13.486;2024-02-16T14:40:34;6.00;;;5.28;;
9304;SDS011;4690;52.422;13.486;2024-02-16T14:43:01;9.07;;;6.50;;
9304;SDS011;4690;52.422;13.486;2024-02-16T14:45:27;7.35;;;5.75;;
9304;SDS011;4690;52.422;13.486;2024-02-16T14:47:53;6.30;;;5.10;;
9304;SDS011;4690;52.422;13.486;2024-02-16T14:50:19;4.70;;;4.30;;
9304;SDS011;4690;52.422;13.486;2024-02-16T14:52:45;5.57;;;4.43;;
9304;SDS011;4690;52.422;13.486;2024-02-16T14:55:11;5.38;;;4.03;;
9304;SDS011;4690;52.422;13.486;2024-02-16T14:57:44;5.72;;;4.10;;